sensor_id;sensor_type;location;lat;lon;timestamp;pressure;altitude;pressure_sealevel;temperature;humidity
49915;BME280;35806;47.958;13.158;2023-02-15T00:02:02;96008.00;;;-3.41;58.33
49915;BME280;35806;47.958;13.158;2023-02-15T00:04:29;96008.97;;;-4.39;59.52
49915;BME280;35806;47.958;13.158;2023-02-15T00:06:57;96003.95;;;-3.81;59.55
49915;BME280;35806;47.958;13.158;2023-02-15T00:09:24;96002.76;;;-4.05;60.08
49915;BME280;35806;47.958;13.158;2023-02-15T00:11:51;96001.34;;;-3.01;58.21
49915;BME280;35806;47.958;13.158;2023-02-15T00:14:20;95999.14;;;-3.66;59.26
49915;BME280;35806;47.958;13.158;2023-02-15T00:16:49;95994.86;;;-3.39;59.33
49915;BME280;35806;47.958;13.158;2023-02-15T00:19:18;95995.20;;;-3.98;61.30
49915;BME280;35806;47.958;13.158;2023-02-15T00:21:46;95993.15;;;-3.49;61.32
49915;BME280;35806;47.958;13.158;2023-02-15T00:24:16;95987.66;;;-4.03;62.05
49915;BME280;35806;47.958;13.158;2023-02-15T00:26:44;95981.52;;;-3.52;61.73
49915;BME280;35806;47.958;13.158;2023-02-15T00:29:13;95977.35;;;-4.29;61.89
49915;BME280;35806;47.958;13.158;2023-02-15T00:31:41;95971.04;;;-3.74;61.97
49915;BME280;35806;47.958;13.158;2023-02-15T00:34:12;95965.26;;;-3.02;59.35
49915;BME280;35806;47.958;13.158;2023-02-15T00:36:40;95964.40;;;-2.99;59.76
49915;BME280;35806;47.958;13.158;2023-02-15T00:39:07;95959.21;;;-2.48;58.61
49915;BME280;35806;47.958;13.158;2023-02-15T00:41:34;95956.82;;;-2.21;57.77
49915;BME280;35806;47.958;13.158;2023-02-15T00:44:03;95954.58;;;-2.57;58.52
49915;BME280;35806;47.958;13.158;2023-02-15T00:46:31;95957.81;;;-2.46;57.89
49915;BME280;35806;47.958;13.158;2023-02-15T00:48:59;95957.51;;;-2.79;58.93
49915;BME280;35806;47.958;13.158;2023-02-15T00:51:25;95952.99;;;-2.15;57.68
49915;BME280;35806;47.958;13.158;2023-02-15T00:53:53;95949.76;;;-1.76;57.29
49915;BME280;35806;47.958;13.158;2023-02-15T00:56:20;95947.50;;;-2.47;57.66
49915;BME280;35806;47.958;13.158;2023-02-15T00:58:47;95945.52;;;-2.72;58.02
49915;BME280;35806;47.958;13.158;2023-02-15T01:01:17;95941.57;;;-2.39;57.43
49915;BME280;35806;47.958;13.158;2023-02-15T01:03:45;95945.97;;;-2.06;56.55
49915;BME280;35806;47.958;13.158;2023-02-15T01:06:12;95944.78;;;-2.23;56.32
49915;BME280;35806;47.958;13.158;2023-02-15T01:08:40;95948.08;;;-2.89;57.67
49915;BME280;35806;47.958;13.158;2023-02-15T01:11:09;95945.57;;;-2.45;56.89
49915;BME280;35806;47.958;13.158;2023-02-15T01:13:37;95945.96;;;-2.82;57.09
49915;BME280;35806;47.958;13.158;2023-02-15T01:16:05;95942.04;;;-2.39;56.06
49915;BME280;35806;47.958;13.158;2023-02-15T01:18:33;95941.59;;;-2.45;56.32
49915;BME280;35806;47.958;13.158;2023-02-15T01:21:09;95934.05;;;-2.00;53.97
49915;BME280;35806;47.958;13.158;2023-02-15T01:23:36;95933.27;;;-2.56;55.82
49915;BME280;35806;47.958;13.158;2023-02-15T01:26:03;95937.72;;;-4.18;58.37
49915;BME280;35806;47.958;13.158;2023-02-15T01:28:31;95931.50;;;-3.53;56.87
49915;BME280;35806;47.958;13.158;2023-02-15T01:30:58;95931.07;;;-3.88;57.34
49915;BME280;35806;47.958;13.158;2023-02-15T01:33:25;95929.09;;;-3.81;56.57
49915;BME280;35806;47.958;13.158;2023-02-15T01:35:56;95925.29;;;-3.30;55.85
49915;BME280;35806;47.958;13.158;2023-02-15T01:38:23;95925.83;;;-3.65;56.10
49915;BME280;35806;47.958;13.158;2023-02-15T01:40:51;95922.07;;;-3.95;57.53
49915;BME280;35806;47.958;13.158;2023-02-15T01:43:39;95918.29;;;-4.81;58.76
49915;BME280;35806;47.958;13.158;2023-02-15T01:46:07;95910.64;;;-4.28;58.35
49915;BME280;35806;47.958;13.158;2023-02-15T01:48:41;95907.44;;;-4.37;58.12
49915;BME280;35806;47.958;13.158;2023-02-15T01:51:11;95904.99;;;-3.89;58.03
49915;BME280;35806;47.958;13.158;2023-02-15T01:53:43;95899.18;;;-4.24;58.44
49915;BME280;35806;47.958;13.158;2023-02-15T01:56:16;95898.21;;;-3.56;57.02
49915;BME280;35806;47.958;13.158;2023-02-15T01:58:46;95896.74;;;-3.84;58.16
49915;BME280;35806;47.958;13.158;2023-02-15T02:16:03;95879.10;;;-4.82;60.76
49915;BME280;35806;47.958;13.158;2023-02-15T02:18:41;95877.36;;;-4.63;60.63
49915;BME280;35806;47.958;13.158;2023-02-15T02:21:30;95874.87;;;-5.63;62.47
49915;BME280;35806;47.958;13.158;2023-02-15T02:24:20;95875.51;;;-5.96;63.78
49915;BME280;35806;47.958;13.158;2023-02-15T02:27:29;95877.06;;;-5.94;64.10
49915;BME280;35806;47.958;13.158;2023-02-15T02:30:16;95876.54;;;-5.91;65.45
49915;BME280;35806;47.958;13.158;2023-02-15T02:33:12;95874.87;;;-5.38;64.24
49915;BME280;35806;47.958;13.158;2023-02-15T02:35:51;95873.81;;;-5.63;65.80
49915;BME280;35806;47.958;13.158;2023-02-15T02:38:27;95876.08;;;-6.04;65.92
49915;BME280;35806;47.958;13.158;2023-02-15T02:41:05;95873.57;;;-4.73;62.57
49915;BME280;35806;47.958;13.158;2023-02-15T02:43:42;95873.43;;;-4.30;61.10
49915;BME280;35806;47.958;13.158;2023-02-15T02:46:19;95875.67;;;-4.32;62.60
49915;BME280;35806;47.958;13.158;2023-02-15T02:48:49;95873.43;;;-5.38;63.98
49915;BME280;35806;47.958;13.158;2023-02-15T02:51:16;95878.36;;;-5.02;62.94
49915;BME280;35806;47.958;13.158;2023-02-15T02:53:43;95873.96;;;-4.98;62.61
49915;BME280;35806;47.958;13.158;2023-02-15T02:56:18;95872.47;;;-5.03;63.05
49915;BME280;35806;47.958;13.158;2023-02-15T02:58:50;95870.08;;;-3.90;60.58
49915;BME280;35806;47.958;13.158;2023-02-15T03:01:22;95865.78;;;-3.80;60.41
49915;BME280;35806;47.958;13.158;2023-02-15T03:03:53;95860.36;;;-3.57;59.54
49915;BME280;35806;47.958;13.158;2023-02-15T03:06:25;95853.70;;;-2.76;58.16
49915;BME280;35806;47.958;13.158;2023-02-15T03:09:00;95853.49;;;-3.23;57.96
49915;BME280;35806;47.958;13.158;2023-02-15T03:11:29;95850.24;;;-2.89;57.91
49915;BME280;35806;47.958;13.158;2023-02-15T03:13:58;95852.64;;;-2.87;57.90
49915;BME280;35806;47.958;13.158;2023-02-15T03:16:26;95848.53;;;-3.32;57.94
49915;BME280;35806;47.958;13.158;2023-02-15T03:18:57;95848.46;;;-3.21;57.84
49915;BME280;35806;47.958;13.158;2023-02-15T03:21:31;95842.07;;;-2.82;56.77
49915;BME280;35806;47.958;13.158;2023-02-15T03:24:04;95842.31;;;-3.25;57.55
49915;BME280;35806;47.958;13.158;2023-02-15T03:26:35;95848.39;;;-4.52;59.47
49915;BME280;35806;47.958;13.158;2023-02-15T03:29:04;95844.26;;;-3.58;57.85
49915;BME280;35806;47.958;13.158;2023-02-15T03:31:37;95844.17;;;-3.72;57.89
49915;BME280;35806;47.958;13.158;2023-02-15T03:34:07;95842.29;;;-2.90;56.40
49915;BME280;35806;47.958;13.158;2023-02-15T03:36:42;95844.44;;;-3.04;56.54
49915;BME280;35806;47.958;13.158;2023-02-15T03:39:16;95850.23;;;-3.37;57.31
49915;BME280;35806;47.958;13.158;2023-02-15T03:41:51;95849.04;;;-3.13;57.04
49915;BME280;35806;47.958;13.158;2023-02-15T03:44:25;95848.79;;;-2.68;55.46
49915;BME280;35806;47.958;13.158;2023-02-15T03:46:58;95847.10;;;-3.31;56.74
49915;BME280;35806;47.958;13.158;2023-02-15T03:49:30;95844.53;;;-2.59;55.07
49915;BME280;35806;47.958;13.158;2023-02-15T03:52:00;95845.44;;;-2.87;55.50
49915;BME280;35806;47.958;13.158;2023-02-15T03:54:32;95844.36;;;-2.96;55.88
49915;BME280;35806;47.958;13.158;2023-02-15T03:57:01;95845.77;;;-4.26;57.31
49915;BME280;35806;47.958;13.158;2023-02-15T03:59:29;95841.67;;;-3.32;56.87
49915;BME280;35806;47.958;13.158;2023-02-15T04:02:04;95843.68;;;-3.61;56.75
49915;BME280;35806;47.958;13.158;2023-02-15T04:04:40;95836.94;;;-3.25;55.99
49915;BME280;35806;47.958;13.158;2023-02-15T04:07:09;95837.95;;;-3.46;56.93
49915;BME280;35806;47.958;13.158;2023-02-15T04:09:36;95838.40;;;-3.50;56.33
49915;BME280;35806;47.958;13.158;2023-02-15T04:12:04;95837.43;;;-3.21;56.00
49915;BME280;35806;47.958;13.158;2023-02-15T04:14:31;95836.77;;;-2.96;56.52
49915;BME280;35806;47.958;13.158;2023-02-15T04:16:59;95836.54;;;-3.32;56.03
49915;BME280;35806;47.958;13.158;2023-02-15T04:19:26;95837.98;;;-4.03;58.63
49915;BME280;35806;47.958;13.158;2023-02-15T04:21:53;95838.41;;;-5.15;59.89
49915;BME280;35806;47.958;13.158;2023-02-15T04:24:20;95837.49;;;-4.75;58.90
49915;BME280;35806;47.958;13.158;2023-02-15T04:26:47;95839.42;;;-5.66;61.66
49915;BME280;35806;47.958;13.158;2023-02-15T04:29:15;95839.65;;;-4.25;57.81
49915;BME280;35806;47.958;13.158;2023-02-15T04:31:42;95842.87;;;-5.10;60.20
49915;BME280;35806;47.958;13.158;2023-02-15T04:34:10;95842.66;;;-5.26;60.50
49915;BME280;35806;47.958;13.158;2023-02-15T04:36:38;95843.39;;;-4.99;59.01
49915;BME280;35806;47.958;13.158;2023-02-15T04:39:06;95842.26;;;-5.50;59.95
49915;BME280;35806;47.958;13.158;2023-02-15T04:41:33;95846.56;;;-6.09;61.48
49915;BME280;35806;47.958;13.158;2023-02-15T04:44:00;95848.12;;;-6.15;61.44
49915;BME280;35806;47.958;13.158;2023-02-15T04:46:28;95848.54;;;-5.64;60.74
49915;BME280;35806;47.958;13.158;2023-02-15T04:48:56;95849.21;;;-4.68;58.77
49915;BME280;35806;47.958;13.158;2023-02-15T04:51:24;95847.97;;;-4.65;59.74
49915;BME280;35806;47.958;13.158;2023-02-15T04:53:51;95852.39;;;-4.64;59.14
49915;BME280;35806;47.958;13.158;2023-02-15T04:56:18;95852.39;;;-4.46;59.33
49915;BME280;35806;47.958;13.158;2023-02-15T04:58:46;95852.80;;;-4.18;58.59
49915;BME280;35806;47.958;13.158;2023-02-15T05:01:14;95849.16;;;-3.43;57.54
49915;BME280;35806;47.958;13.158;2023-02-15T05:03:41;95849.85;;;-3.84;58.62
49915;BME280;35806;47.958;13.158;2023-02-15T05:06:08;95842.44;;;-4.17;58.51
49915;BME280;35806;47.958;13.158;2023-02-15T05:08:36;95845.53;;;-3.72;58.59
49915;BME280;35806;47.958;13.158;2023-02-15T05:11:03;95841.62;;;-3.32;58.44
49915;BME280;35806;47.958;13.158;2023-02-15T05:13:30;95845.00;;;-3.75;58.37
49915;BME280;35806;47.958;13.158;2023-02-15T05:15:57;95844.96;;;-4.08;59.23
49915;BME280;35806;47.958;13.158;2023-02-15T05:18:24;95844.22;;;-3.80;58.97
49915;BME280;35806;47.958;13.158;2023-02-15T05:20:51;95842.11;;;-3.69;58.66
49915;BME280;35806;47.958;13.158;2023-02-15T05:23:19;95836.50;;;-3.25;58.10
49915;BME280;35806;47.958;13.158;2023-02-15T05:25:48;95837.58;;;-2.18;54.61
49915;BME280;35806;47.958;13.158;2023-02-15T05:28:15;95836.02;;;-2.74;55.84
49915;BME280;35806;47.958;13.158;2023-02-15T05:30:42;95840.66;;;-2.54;55.00
49915;BME280;35806;47.958;13.158;2023-02-15T05:33:09;95844.73;;;-3.12;56.25
49915;BME280;35806;47.958;13.158;2023-02-15T05:35:36;95844.43;;;-3.00;56.02
49915;BME280;35806;47.958;13.158;2023-02-15T05:38:03;95844.61;;;-2.77;55.16
49915;BME280;35806;47.958;13.158;2023-02-15T05:40:31;95849.29;;;-2.63;54.99
49915;BME280;35806;47.958;13.158;2023-02-15T05:42:58;95857.13;;;-3.27;55.84
49915;BME280;35806;47.958;13.158;2023-02-15T05:45:25;95866.22;;;-2.99;55.83
49915;BME280;35806;47.958;13.158;2023-02-15T05:47:54;95876.16;;;-5.42;59.91
49915;BME280;35806;47.958;13.158;2023-02-15T05:50:21;95883.41;;;-5.82;61.89
49915;BME280;35806;47.958;13.158;2023-02-15T05:52:48;95881.46;;;-5.65;61.74
49915;BME280;35806;47.958;13.158;2023-02-15T05:55:15;95885.46;;;-5.70;62.21
49915;BME280;35806;47.958;13.158;2023-02-15T05:57:42;95886.94;;;-5.88;62.94
49915;BME280;35806;47.958;13.158;2023-02-15T06:00:11;95888.59;;;-5.86;63.32
49915;BME280;35806;47.958;13.158;2023-02-15T06:02:39;95892.34;;;-5.23;61.57
49915;BME280;35806;47.958;13.158;2023-02-15T06:05:07;95902.55;;;-6.22;63.83
49915;BME280;35806;47.958;13.158;2023-02-15T06:07:35;95905.23;;;-6.20;63.51
49915;BME280;35806;47.958;13.158;2023-02-15T06:10:03;95907.76;;;-6.13;63.97
49915;BME280;35806;47.958;13.158;2023-02-15T06:12:30;95911.19;;;-6.37;64.18
49915;BME280;35806;47.958;13.158;2023-02-15T06:14:57;95909.90;;;-5.49;62.27
49915;BME280;35806;47.958;13.158;2023-02-15T06:17:25;95911.56;;;-5.68;62.78
49915;BME280;35806;47.958;13.158;2023-02-15T06:19:52;95915.70;;;-5.89;63.59
49915;BME280;35806;47.958;13.158;2023-02-15T06:22:20;95915.69;;;-5.70;62.76
49915;BME280;35806;47.958;13.158;2023-02-15T06:24:46;95916.92;;;-4.62;60.81
49915;BME280;35806;47.958;13.158;2023-02-15T06:27:14;95923.43;;;-5.25;62.62
49915;BME280;35806;47.958;13.158;2023-02-15T06:29:42;95923.74;;;-4.71;60.86
49915;BME280;35806;47.958;13.158;2023-02-15T06:32:09;95928.52;;;-4.11;60.00
49915;BME280;35806;47.958;13.158;2023-02-15T06:34:36;95932.95;;;-3.61;58.98
49915;BME280;35806;47.958;13.158;2023-02-15T06:37:03;95930.46;;;-3.50;59.31
49915;BME280;35806;47.958;13.158;2023-02-15T06:39:31;95929.12;;;-3.67;59.42
49915;BME280;35806;47.958;13.158;2023-02-15T06:41:58;95930.26;;;-3.88;59.34
49915;BME280;35806;47.958;13.158;2023-02-15T06:44:25;95932.38;;;-2.98;57.89
49915;BME280;35806;47.958;13.158;2023-02-15T06:46:52;95933.47;;;-3.35;58.74
49915;BME280;35806;47.958;13.158;2023-02-15T06:49:19;95941.91;;;-3.31;58.65
49915;BME280;35806;47.958;13.158;2023-02-15T06:51:46;95942.07;;;-2.99;58.30
49915;BME280;35806;47.958;13.158;2023-02-15T06:54:13;95947.16;;;-2.91;58.49
49915;BME280;35806;47.958;13.158;2023-02-15T06:56:40;95945.53;;;-2.88;58.55
49915;BME280;35806;47.958;13.158;2023-02-15T06:59:07;95941.91;;;-2.52;57.39
49915;BME280;35806;47.958;13.158;2023-02-15T07:01:35;95944.50;;;-3.13;57.98
49915;BME280;35806;47.958;13.158;2023-02-15T07:04:03;95946.28;;;-2.82;57.86
49915;BME280;35806;47.958;13.158;2023-02-15T07:06:31;95948.99;;;-2.67;58.02
49915;BME280;35806;47.958;13.158;2023-02-15T07:08:58;95951.29;;;-3.25;58.14
49915;BME280;35806;47.958;13.158;2023-02-15T07:11:27;95951.73;;;-2.97;58.71
49915;BME280;35806;47.958;13.158;2023-02-15T07:13:55;95951.07;;;-2.75;58.20
49915;BME280;35806;47.958;13.158;2023-02-15T07:16:22;95954.02;;;-2.61;57.00
49915;BME280;35806;47.958;13.158;2023-02-15T07:18:49;95952.87;;;-2.73;56.78
49915;BME280;35806;47.958;13.158;2023-02-15T07:21:17;95950.53;;;-2.18;55.63
49915;BME280;35806;47.958;13.158;2023-02-15T07:23:44;95951.27;;;-2.38;56.68
49915;BME280;35806;47.958;13.158;2023-02-15T07:26:12;95948.59;;;-2.00;55.34
49915;BME280;35806;47.958;13.158;2023-02-15T07:28:39;95949.46;;;-2.93;56.65
49915;BME280;35806;47.958;13.158;2023-02-15T07:31:06;95945.34;;;-2.69;57.12
49915;BME280;35806;47.958;13.158;2023-02-15T07:33:34;95943.50;;;-2.60;57.00
49915;BME280;35806;47.958;13.158;2023-02-15T07:36:03;95939.66;;;-2.39;56.66
49915;BME280;35806;47.958;13.158;2023-02-15T07:38:32;95935.38;;;-1.91;56.08
49915;BME280;35806;47.958;13.158;2023-02-15T07:41:00;95937.02;;;-2.33;57.09
49915;BME280;35806;47.958;13.158;2023-02-15T07:43:29;95933.27;;;-2.31;56.92
49915;BME280;35806;47.958;13.158;2023-02-15T07:46:02;95935.23;;;-2.03;56.40
49915;BME280;35806;47.958;13.158;2023-02-15T07:48:30;95932.22;;;-2.44;56.95
49915;BME280;35806;47.958;13.158;2023-02-15T07:50:59;95930.69;;;-2.71;57.61
49915;BME280;35806;47.958;13.158;2023-02-15T07:53:26;95928.37;;;-2.14;57.05
49915;BME280;35806;47.958;13.158;2023-02-15T07:55:54;95927.38;;;-2.36;56.81
49915;BME280;35806;47.958;13.158;2023-02-15T07:58:25;95922.84;;;-1.86;56.19
49915;BME280;35806;47.958;13.158;2023-02-15T08:00:52;95921.53;;;-2.04;57.31
49915;BME280;35806;47.958;13.158;2023-02-15T08:03:19;95920.41;;;-1.86;57.26
49915;BME280;35806;47.958;13.158;2023-02-15T08:05:46;95919.61;;;-1.94;56.88
49915;BME280;35806;47.958;13.158;2023-02-15T08:08:13;95913.20;;;-1.16;55.12
49915;BME280;35806;47.958;13.158;2023-02-15T08:10:40;95920.35;;;-1.78;56.66
49915;BME280;35806;47.958;13.158;2023-02-15T08:13:07;95920.17;;;-1.90;56.89
49915;BME280;35806;47.958;13.158;2023-02-15T08:15:34;95917.85;;;-0.89;55.68
49915;BME280;35806;47.958;13.158;2023-02-15T08:18:02;95918.65;;;-1.00;54.67
49915;BME280;35806;47.958;13.158;2023-02-15T08:20:29;95919.05;;;-1.07;54.99
49915;BME280;35806;47.958;13.158;2023-02-15T08:22:56;95914.19;;;-1.02;55.47
49915;BME280;35806;47.958;13.158;2023-02-15T08:25:23;95912.70;;;-1.39;56.44
49915;BME280;35806;47.958;13.158;2023-02-15T08:27:50;95911.23;;;-1.14;56.27
49915;BME280;35806;47.958;13.158;2023-02-15T08:30:17;95913.95;;;-1.06;56.11
49915;BME280;35806;47.958;13.158;2023-02-15T08:32:45;95910.81;;;-1.43;56.84
49915;BME280;35806;47.958;13.158;2023-02-15T08:35:12;95910.07;;;-1.17;56.58
49915;BME280;35806;47.958;13.158;2023-02-15T08:37:39;95904.30;;;-1.03;57.46
49915;BME280;35806;47.958;13.158;2023-02-15T08:40:08;95899.10;;;-0.58;56.30
49915;BME280;35806;47.958;13.158;2023-02-15T08:42:40;95894.71;;;-0.69;57.00
49915;BME280;35806;47.958;13.158;2023-02-15T08:45:08;95894.16;;;-0.41;56.16
49915;BME280;35806;47.958;13.158;2023-02-15T08:47:35;95893.10;;;-0.52;55.65
49915;BME280;35806;47.958;13.158;2023-02-15T08:50:02;95896.90;;;-0.84;56.33
49915;BME280;35806;47.958;13.158;2023-02-15T08:52:30;95898.34;;;-1.21;56.68
49915;BME280;35806;47.958;13.158;2023-02-15T08:54:57;95899.91;;;-1.03;56.80
49915;BME280;35806;47.958;13.158;2023-02-15T08:57:24;95900.70;;;-0.61;55.84
49915;BME280;35806;47.958;13.158;2023-02-15T08:59:51;95900.82;;;-0.56;56.19
49915;BME280;35806;47.958;13.158;2023-02-15T09:02:18;95904.96;;;0.04;55.97
49915;BME280;35806;47.958;13.158;2023-02-15T09:04:46;95903.71;;;-0.17;55.51
49915;BME280;35806;47.958;13.158;2023-02-15T09:07:13;95902.62;;;0.18;55.39
49915;BME280;35806;47.958;13.158;2023-02-15T09:09:40;95899.40;;;0.26;55.57
49915;BME280;35806;47.958;13.158;2023-02-15T09:12:07;95894.50;;;0.38;56.12
49915;BME280;35806;47.958;13.158;2023-02-15T09:14:35;95890.47;;;0.36;56.20
49915;BME280;35806;47.958;13.158;2023-02-15T09:17:02;95893.15;;;0.21;56.77
49915;BME280;35806;47.958;13.158;2023-02-15T09:19:29;95890.65;;;0.39;57.96
49915;BME280;35806;47.958;13.158;2023-02-15T09:21:57;95884.22;;;1.62;55.72
49915;BME280;35806;47.958;13.158;2023-02-15T09:24:23;95881.79;;;1.15;57.28
49915;BME280;35806;47.958;13.158;2023-02-15T09:26:51;95881.56;;;1.23;57.01
49915;BME280;35806;47.958;13.158;2023-02-15T09:29:19;95877.37;;;1.95;55.70
49915;BME280;35806;47.958;13.158;2023-02-15T09:31:47;95871.49;;;1.92;56.01
49915;BME280;35806;47.958;13.158;2023-02-15T09:34:16;95871.31;;;1.94;55.87
49915;BME280;35806;47.958;13.158;2023-02-15T09:36:45;95873.72;;;1.83;55.78
49915;BME280;35806;47.958;13.158;2023-02-15T09:39:14;95875.42;;;1.84;56.40
49915;BME280;35806;47.958;13.158;2023-02-15T09:41:56;95874.58;;;2.05;55.90
49915;BME280;35806;47.958;13.158;2023-02-15T09:44:38;95872.33;;;1.60;57.28
49915;BME280;35806;47.958;13.158;2023-02-15T09:47:26;95872.49;;;2.08;55.10
49915;BME280;35806;47.958;13.158;2023-02-15T09:50:02;95871.96;;;1.71;55.53
49915;BME280;35806;47.958;13.158;2023-02-15T09:52:39;95880.44;;;1.22;56.02
49915;BME280;35806;47.958;13.158;2023-02-15T09:55:18;95881.07;;;1.15;56.01
49915;BME280;35806;47.958;13.158;2023-02-15T09:57:52;95879.80;;;1.75;55.94
49915;BME280;35806;47.958;13.158;2023-02-15T10:00:27;95878.30;;;1.80;55.45
49915;BME280;35806;47.958;13.158;2023-02-15T10:03:13;95875.69;;;1.50;55.83
49915;BME280;35806;47.958;13.158;2023-02-15T10:05:54;95875.84;;;1.88;56.09
49915;BME280;35806;47.958;13.158;2023-02-15T10:08:39;95876.96;;;1.79;56.48
49915;BME280;35806;47.958;13.158;2023-02-15T10:11:14;95877.79;;;1.73;57.13
49915;BME280;35806;47.958;13.158;2023-02-15T10:13:50;95877.23;;;2.00;55.81
49915;BME280;35806;47.958;13.158;2023-02-15T10:16:25;95875.14;;;2.14;55.74
49915;BME280;35806;47.958;13.158;2023-02-15T10:19:03;95869.66;;;2.65;55.82
49915;BME280;35806;47.958;13.158;2023-02-15T10:21:43;95863.44;;;2.70;55.48
49915;BME280;35806;47.958;13.158;2023-02-15T10:24:30;95863.07;;;2.94;54.76
49915;BME280;35806;47.958;13.158;2023-02-15T10:27:09;95858.11;;;2.93;54.97
49915;BME280;35806;47.958;13.158;2023-02-15T10:29:42;95859.52;;;2.93;55.36
49915;BME280;35806;47.958;13.158;2023-02-15T10:32:21;95857.39;;;2.93;54.89
49915;BME280;35806;47.958;13.158;2023-02-15T10:34:51;95852.11;;;3.20;54.78
49915;BME280;35806;47.958;13.158;2023-02-15T10:37:34;95849.87;;;3.51;54.73
49915;BME280;35806;47.958;13.158;2023-02-15T10:40:11;95846.98;;;3.63;53.81
49915;BME280;35806;47.958;13.158;2023-02-15T10:42:54;95844.14;;;3.31;54.43
49915;BME280;35806;47.958;13.158;2023-02-15T10:45:30;95842.62;;;2.57;56.03
49915;BME280;35806;47.958;13.158;2023-02-15T10:48:22;95836.33;;;3.57;54.69
49915;BME280;35806;47.958;13.158;2023-02-15T10:50:54;95828.79;;;3.78;55.42
49915;BME280;35806;47.958;13.158;2023-02-15T10:53:36;95831.06;;;4.62;52.79
49915;BME280;35806;47.958;13.158;2023-02-15T10:56:12;95825.81;;;3.78;55.24
49915;BME280;35806;47.958;13.158;2023-02-15T10:58:53;95824.84;;;2.17;58.61
49915;BME280;35806;47.958;13.158;2023-02-15T11:01:32;95820.29;;;3.95;54.16
49915;BME280;35806;47.958;13.158;2023-02-15T11:04:12;95815.82;;;4.60;54.15
49915;BME280;35806;47.958;13.158;2023-02-15T11:06:50;95811.78;;;5.24;51.73
49915;BME280;35806;47.958;13.158;2023-02-15T11:09:20;95811.84;;;5.17;51.52
49915;BME280;35806;47.958;13.158;2023-02-15T11:11:55;95808.19;;;5.44;50.55
49915;BME280;35806;47.958;13.158;2023-02-15T11:14:31;95807.57;;;5.76;49.51
49915;BME280;35806;47.958;13.158;2023-02-15T11:17:05;95803.59;;;5.66;49.89
49915;BME280;35806;47.958;13.158;2023-02-15T11:19:38;95803.96;;;6.29;50.77
49915;BME280;35806;47.958;13.158;2023-02-15T11:22:10;95795.52;;;6.63;48.22
49915;BME280;35806;47.958;13.158;2023-02-15T11:24:42;95794.44;;;6.70;47.34
49915;BME280;35806;47.958;13.158;2023-02-15T11:27:19;95793.16;;;6.99;46.67
49915;BME280;35806;47.958;13.158;2023-02-15T11:29:53;95794.21;;;6.89;48.01
49915;BME280;35806;47.958;13.158;2023-02-15T11:32:25;95794.01;;;6.45;48.66
49915;BME280;35806;47.958;13.158;2023-02-15T11:34:55;95791.11;;;7.24;47.89
49915;BME280;35806;47.958;13.158;2023-02-15T11:37:29;95792.01;;;7.16;47.80
49915;BME280;35806;47.958;13.158;2023-02-15T11:40:00;95789.33;;;6.92;48.19
49915;BME280;35806;47.958;13.158;2023-02-15T11:42:31;95788.55;;;7.36;47.08
49915;BME280;35806;47.958;13.158;2023-02-15T11:45:04;95789.96;;;7.42;46.78
49915;BME280;35806;47.958;13.158;2023-02-15T11:47:34;95790.28;;;7.61;46.57
49915;BME280;35806;47.958;13.158;2023-02-15T11:50:02;95787.88;;;8.36;45.11
49915;BME280;35806;47.958;13.158;2023-02-15T11:52:29;95787.92;;;8.18;44.98
49915;BME280;35806;47.958;13.158;2023-02-15T11:55:01;95781.91;;;8.85;44.78
49915;BME280;35806;47.958;13.158;2023-02-15T11:57:33;95780.47;;;9.03;43.36
49915;BME280;35806;47.958;13.158;2023-02-15T12:00:09;95774.21;;;10.37;42.51
49915;BME280;35806;47.958;13.158;2023-02-15T12:02:44;95772.16;;;10.57;42.04
49915;BME280;35806;47.958;13.158;2023-02-15T12:05:17;95768.42;;;11.80;39.80
49915;BME280;35806;47.958;13.158;2023-02-15T12:07:48;95767.19;;;12.25;40.51
49915;BME280;35806;47.958;13.158;2023-02-15T12:10:20;95763.97;;;12.52;37.81
49915;BME280;35806;47.958;13.158;2023-02-15T12:13:09;95759.18;;;13.61;37.09
49915;BME280;35806;47.958;13.158;2023-02-15T12:15:37;95758.86;;;13.50;35.78
49915;BME280;35806;47.958;13.158;2023-02-15T12:18:19;95757.01;;;14.04;35.07
49915;BME280;35806;47.958;13.158;2023-02-15T12:20:49;95755.42;;;14.62;34.49
49915;BME280;35806;47.958;13.158;2023-02-15T12:23:17;95756.29;;;13.44;35.21
49915;BME280;35806;47.958;13.158;2023-02-15T12:25:51;95752.41;;;14.03;33.83
49915;BME280;35806;47.958;13.158;2023-02-15T12:28:25;95751.33;;;13.92;33.01
49915;BME280;35806;47.958;13.158;2023-02-15T12:30:55;95744.93;;;14.08;32.28
49915;BME280;35806;47.958;13.158;2023-02-15T12:33:28;95743.82;;;14.08;33.02
49915;BME280;35806;47.958;13.158;2023-02-15T12:36:06;95744.08;;;14.26;33.17
49915;BME280;35806;47.958;13.158;2023-02-15T12:38:37;95741.00;;;14.21;33.25
49915;BME280;35806;47.958;13.158;2023-02-15T12:41:19;95737.78;;;13.61;33.73
49915;BME280;35806;47.958;13.158;2023-02-15T12:44:04;95736.81;;;13.90;33.22
49915;BME280;35806;47.958;13.158;2023-02-15T12:46:31;95735.16;;;14.27;32.95
49915;BME280;35806;47.958;13.158;2023-02-15T12:49:14;95730.48;;;14.17;33.57
49915;BME280;35806;47.958;13.158;2023-02-15T12:51:46;95726.82;;;14.05;32.90
49915;BME280;35806;47.958;13.158;2023-02-15T12:54:17;95725.22;;;14.11;33.07
49915;BME280;35806;47.958;13.158;2023-02-15T12:56:49;95721.11;;;14.58;32.82
49915;BME280;35806;47.958;13.158;2023-02-15T12:59:18;95717.96;;;14.81;32.64
49915;BME280;35806;47.958;13.158;2023-02-15T13:01:46;95708.11;;;14.44;32.22
49915;BME280;35806;47.958;13.158;2023-02-15T13:04:21;95707.60;;;14.06;32.91
49915;BME280;35806;47.958;13.158;2023-02-15T13:06:50;95700.77;;;14.40;33.05
49915;BME280;35806;47.958;13.158;2023-02-15T13:09:21;95691.85;;;15.08;31.91
49915;BME280;35806;47.958;13.158;2023-02-15T13:11:51;95693.31;;;14.49;32.00
49915;BME280;35806;47.958;13.158;2023-02-15T13:14:21;95685.85;;;14.68;31.90
49915;BME280;35806;47.958;13.158;2023-02-15T13:16:51;95683.17;;;15.09;31.36
49915;BME280;35806;47.958;13.158;2023-02-15T13:19:26;95678.94;;;14.90;31.37
49915;BME280;35806;47.958;13.158;2023-02-15T13:21:57;95673.09;;;15.69;29.91
49915;BME280;35806;47.958;13.158;2023-02-15T13:24:33;95669.67;;;15.28;30.41
49915;BME280;35806;47.958;13.158;2023-02-15T13:27:03;95668.81;;;14.79;30.88